sensor_id;sensor_type;location;lat;lon;timestamp;P1;durP1;ratioP1;P2;durP2;ratioP2
5277;SDS011;2662;51.194;6.614;2023-05-08T00:02:03;26.87;;;14.30;;
5277;SDS011;2662;51.194;6.614;2023-05-08T00:04:32;18.50;;;14.17;;
5277;SDS011;2662;51.194;6.614;2023-05-08T00:07:00;22.20;;;13.30;;
5277;SDS011;2662;51.194;6.614;2023-05-08T00:09:30;20.40;;;13.20;;
5277;SDS011;2662;51.194;6.614;2023-05-08T00:11:58;18.87;;;13.80;;
5277;SDS011;2662;51.194;6.614;2023-05-08T00:14:26;18.53;;;13.60;;
5277;SDS011;2662;51.194;6.614;2023-05-08T00:16:53;24.20;;;14.50;;
5277;SDS011;2662;51.194;6.614;2023-05-08T00:19:22;26.80;;;14.50;;
5277;SDS011;2662;51.194;6.614;2023-05-08T00:21:52;19.40;;;14.60;;
5277;SDS011;2662;51.194;6.614;2023-05-08T00:24:19;19.70;;;13.83;;
5277;SDS011;2662;51.194;6.614;2023-05-08T00:26:48;20.67;;;14.27;;
5277;SDS011;2662;51.194;6.614;2023-05-08T00:29:16;18.97;;;13.70;;
5277;SDS011;2662;51.194;6.614;2023-05-08T00:31:44;22.37;;;13.67;;
5277;SDS011;2662;51.194;6.614;2023-05-08T00:34:12;28.30;;;14.43;;
5277;SDS011;2662;51.194;6.614;2023-05-08T00:36:41;30.20;;;13.23;;
5277;SDS011;2662;51.194;6.614;2023-05-08T00:39:10;25.63;;;13.20;;
5277;SDS011;2662;51.194;6.614;2023-05-08T00:41:38;19.47;;;13.23;;
5277;SDS011;2662;51.194;6.614;2023-05-08T00:44:07;20.10;;;13.30;;
5277;SDS011;2662;51.194;6.614;2023-05-08T00:46:36;19.07;;;14.57;;
5277;SDS011;2662;51.194;6.614;2023-05-08T00:49:03;30.37;;;15.30;;
5277;SDS011;2662;51.194;6.614;2023-05-08T00:51:36;24.83;;;13.10;;
5277;SDS011;2662;51.194;6.614;2023-05-08T00:54:03;19.87;;;14.50;;
5277;SDS011;2662;51.194;6.614;2023-05-08T00:56:33;23.73;;;14.70;;
5277;SDS011;2662;51.194;6.614;2023-05-08T00:59:03;21.70;;;14.70;;
5277;SDS011;2662;51.194;6.614;2023-05-08T01:01:35;19.63;;;14.20;;
5277;SDS011;2662;51.194;6.614;2023-05-08T01:04:06;20.80;;;14.10;;
5277;SDS011;2662;51.194;6.614;2023-05-08T01:06:34;23.83;;;13.77;;
5277;SDS011;2662;51.194;6.614;2023-05-08T01:09:04;17.30;;;13.60;;
5277;SDS011;2662;51.194;6.614;2023-05-08T01:11:36;19.20;;;13.10;;
5277;SDS011;2662;51.194;6.614;2023-05-08T01:14:10;18.97;;;13.67;;
5277;SDS011;2662;51.194;6.614;2023-05-08T01:16:44;20.30;;;14.33;;
5277;SDS011;2662;51.194;6.614;2023-05-08T01:22:19;21.50;;;13.97;;
5277;SDS011;2662;51.194;6.614;2023-05-08T01:25:06;21.33;;;14.07;;
5277;SDS011;2662;51.194;6.614;2023-05-08T01:28:17;20.37;;;13.70;;
5277;SDS011;2662;51.194;6.614;2023-05-08T01:31:06;18.80;;;13.20;;
5277;SDS011;2662;51.194;6.614;2023-05-08T01:33:43;22.57;;;13.63;;
5277;SDS011;2662;51.194;6.614;2023-05-08T01:36:20;19.97;;;13.90;;
5277;SDS011;2662;51.194;6.614;2023-05-08T01:38:57;22.27;;;14.60;;
5277;SDS011;2662;51.194;6.614;2023-05-08T01:41:35;21.23;;;13.97;;
5277;SDS011;2662;51.194;6.614;2023-05-08T01:44:09;19.13;;;13.27;;
5277;SDS011;2662;51.194;6.614;2023-05-08T01:46:43;21.70;;;14.73;;
5277;SDS011;2662;51.194;6.614;2023-05-08T01:49:20;18.60;;;14.73;;
5277;SDS011;2662;51.194;6.614;2023-05-08T01:51:55;25.97;;;15.13;;
5277;SDS011;2662;51.194;6.614;2023-05-08T01:54:29;21.37;;;15.27;;
5277;SDS011;2662;51.194;6.614;2023-05-08T01:57:05;28.53;;;15.77;;
5277;SDS011;2662;51.194;6.614;2023-05-08T01:59:40;22.70;;;14.30;;
5277;SDS011;2662;51.194;6.614;2023-05-08T02:02:12;34.23;;;16.77;;
5277;SDS011;2662;51.194;6.614;2023-05-08T02:04:45;24.90;;;16.20;;
5277;SDS011;2662;51.194;6.614;2023-05-08T02:07:15;20.13;;;14.43;;
5277;SDS011;2662;51.194;6.614;2023-05-08T02:09:44;20.10;;;14.60;;
5277;SDS011;2662;51.194;6.614;2023-05-08T02:12:14;19.80;;;14.40;;
5277;SDS011;2662;51.194;6.614;2023-05-08T02:14:44;22.80;;;15.47;;
5277;SDS011;2662;51.194;6.614;2023-05-08T02:17:16;24.90;;;15.40;;
5277;SDS011;2662;51.194;6.614;2023-05-08T02:19:45;22.10;;;15.97;;
5277;SDS011;2662;51.194;6.614;2023-05-08T02:22:14;25.43;;;17.97;;
5277;SDS011;2662;51.194;6.614;2023-05-08T02:24:45;28.60;;;15.93;;
5277;SDS011;2662;51.194;6.614;2023-05-08T02:27:18;21.40;;;16.50;;
5277;SDS011;2662;51.194;6.614;2023-05-08T02:29:49;23.07;;;16.10;;
5277;SDS011;2662;51.194;6.614;2023-05-08T02:32:18;30.00;;;17.00;;
5277;SDS011;2662;51.194;6.614;2023-05-08T02:34:51;27.83;;;17.13;;
5277;SDS011;2662;51.194;6.614;2023-05-08T02:37:21;29.40;;;17.70;;
5277;SDS011;2662;51.194;6.614;2023-05-08T02:39:51;25.37;;;17.23;;
5277;SDS011;2662;51.194;6.614;2023-05-08T02:42:24;35.63;;;17.00;;
5277;SDS011;2662;51.194;6.614;2023-05-08T02:44:54;24.20;;;17.30;;
5277;SDS011;2662;51.194;6.614;2023-05-08T02:47:22;35.57;;;18.17;;
5277;SDS011;2662;51.194;6.614;2023-05-08T02:49:59;24.37;;;17.10;;
5277;SDS011;2662;51.194;6.614;2023-05-08T02:52:34;29.50;;;18.93;;
5277;SDS011;2662;51.194;6.614;2023-05-08T02:55:10;28.10;;;16.63;;
5277;SDS011;2662;51.194;6.614;2023-05-08T02:57:52;30.00;;;18.00;;
5277;SDS011;2662;51.194;6.614;2023-05-08T03:00:30;23.67;;;17.37;;
5277;SDS011;2662;51.194;6.614;2023-05-08T03:03:04;28.77;;;18.17;;
5277;SDS011;2662;51.194;6.614;2023-05-08T03:05:44;23.30;;;16.07;;
5277;SDS011;2662;51.194;6.614;2023-05-08T03:08:18;24.63;;;16.53;;
5277;SDS011;2662;51.194;6.614;2023-05-08T03:10:52;25.23;;;17.07;;
5277;SDS011;2662;51.194;6.614;2023-05-08T03:13:26;26.80;;;17.83;;
5277;SDS011;2662;51.194;6.614;2023-05-08T03:15:59;27.23;;;17.60;;
5277;SDS011;2662;51.194;6.614;2023-05-08T03:18:33;25.80;;;16.80;;
5277;SDS011;2662;51.194;6.614;2023-05-08T03:21:06;28.50;;;18.37;;
5277;SDS011;2662;51.194;6.614;2023-05-08T03:23:39;27.10;;;16.90;;
5277;SDS011;2662;51.194;6.614;2023-05-08T03:26:09;26.57;;;18.50;;
5277;SDS011;2662;51.194;6.614;2023-05-08T03:28:46;29.33;;;18.77;;
5277;SDS011;2662;51.194;6.614;2023-05-08T03:31:17;30.47;;;17.80;;
5277;SDS011;2662;51.194;6.614;2023-05-08T03:33:47;29.13;;;17.70;;
5277;SDS011;2662;51.194;6.614;2023-05-08T03:36:22;33.60;;;17.47;;
5277;SDS011;2662;51.194;6.614;2023-05-08T03:38:53;27.33;;;17.07;;
5277;SDS011;2662;51.194;6.614;2023-05-08T03:41:22;31.37;;;15.80;;
5277;SDS011;2662;51.194;6.614;2023-05-08T03:43:52;36.30;;;16.23;;
5277;SDS011;2662;51.194;6.614;2023-05-08T03:46:21;26.60;;;16.13;;
5277;SDS011;2662;51.194;6.614;2023-05-08T03:48:52;31.60;;;18.07;;
5277;SDS011;2662;51.194;6.614;2023-05-08T03:51:27;31.53;;;17.10;;
5277;SDS011;2662;51.194;6.614;2023-05-08T03:53:59;27.77;;;15.93;;
5277;SDS011;2662;51.194;6.614;2023-05-08T03:56:29;24.40;;;16.67;;
5277;SDS011;2662;51.194;6.614;2023-05-08T03:58:59;24.57;;;16.10;;
5277;SDS011;2662;51.194;6.614;2023-05-08T04:01:37;30.23;;;15.03;;
5277;SDS011;2662;51.194;6.614;2023-05-08T04:04:15;26.50;;;15.73;;
5277;SDS011;2662;51.194;6.614;2023-05-08T04:06:52;22.23;;;14.13;;
5277;SDS011;2662;51.194;6.614;2023-05-08T04:09:27;17.63;;;12.50;;
5277;SDS011;2662;51.194;6.614;2023-05-08T04:12:03;22.10;;;13.37;;
5277;SDS011;2662;51.194;6.614;2023-05-08T04:14:41;17.13;;;11.33;;
5277;SDS011;2662;51.194;6.614;2023-05-08T04:17:14;17.63;;;12.07;;
5277;SDS011;2662;51.194;6.614;2023-05-08T04:19:50;19.43;;;11.80;;
5277;SDS011;2662;51.194;6.614;2023-05-08T04:22:29;18.43;;;11.03;;
5277;SDS011;2662;51.194;6.614;2023-05-08T04:25:00;14.33;;;10.10;;
5277;SDS011;2662;51.194;6.614;2023-05-08T04:27:33;15.57;;;10.00;;
5277;SDS011;2662;51.194;6.614;2023-05-08T04:30:07;11.13;;;9.10;;
5277;SDS011;2662;51.194;6.614;2023-05-08T04:32:40;12.53;;;9.40;;
5277;SDS011;2662;51.194;6.614;2023-05-08T04:35:10;12.70;;;9.10;;
5277;SDS011;2662;51.194;6.614;2023-05-08T04:37:44;11.37;;;8.33;;
5277;SDS011;2662;51.194;6.614;2023-05-08T04:40:13;17.37;;;8.07;;
5277;SDS011;2662;51.194;6.614;2023-05-08T04:42:44;15.67;;;8.60;;
5277;SDS011;2662;51.194;6.614;2023-05-08T04:45:14;14.47;;;8.23;;
5277;SDS011;2662;51.194;6.614;2023-05-08T04:47:44;11.03;;;8.80;;
5277;SDS011;2662;51.194;6.614;2023-05-08T04:50:12;11.50;;;7.63;;
5277;SDS011;2662;51.194;6.614;2023-05-08T04:52:46;10.33;;;8.00;;
5277;SDS011;2662;51.194;6.614;2023-05-08T04:55:16;13.80;;;7.90;;
5277;SDS011;2662;51.194;6.614;2023-05-08T04:57:45;10.57;;;8.17;;
5277;SDS011;2662;51.194;6.614;2023-05-08T05:00:17;23.03;;;7.50;;
5277;SDS011;2662;51.194;6.614;2023-05-08T05:02:46;14.77;;;7.77;;
5277;SDS011;2662;51.194;6.614;2023-05-08T05:05:15;11.43;;;7.90;;
5277;SDS011;2662;51.194;6.614;2023-05-08T05:07:45;17.63;;;8.00;;
5277;SDS011;2662;51.194;6.614;2023-05-08T05:10:13;13.47;;;7.10;;
5277;SDS011;2662;51.194;6.614;2023-05-08T05:12:41;9.83;;;7.47;;
5277;SDS011;2662;51.194;6.614;2023-05-08T05:15:10;9.40;;;7.20;;
5277;SDS011;2662;51.194;6.614;2023-05-08T05:17:41;11.70;;;7.90;;
5277;SDS011;2662;51.194;6.614;2023-05-08T05:20:11;10.63;;;7.50;;
5277;SDS011;2662;51.194;6.614;2023-05-08T05:22:41;8.37;;;7.00;;
5277;SDS011;2662;51.194;6.614;2023-05-08T05:25:10;9.60;;;6.90;;
5277;SDS011;2662;51.194;6.614;2023-05-08T05:27:41;11.03;;;7.90;;
5277;SDS011;2662;51.194;6.614;2023-05-08T05:30:10;9.00;;;7.63;;
5277;SDS011;2662;51.194;6.614;2023-05-08T05:32:40;9.53;;;6.93;;
5277;SDS011;2662;51.194;6.614;2023-05-08T05:35:10;12.97;;;7.73;;
5277;SDS011;2662;51.194;6.614;2023-05-08T05:37:37;7.57;;;6.63;;
5277;SDS011;2662;51.194;6.614;2023-05-08T05:40:08;10.43;;;7.70;;
5277;SDS011;2662;51.194;6.614;2023-05-08T05:42:39;9.23;;;7.43;;
5277;SDS011;2662;51.194;6.614;2023-05-08T05:45:09;8.97;;;7.00;;
5277;SDS011;2662;51.194;6.614;2023-05-08T05:47:37;9.13;;;6.50;;
5277;SDS011;2662;51.194;6.614;2023-05-08T05:50:14;13.23;;;7.07;;
5277;SDS011;2662;51.194;6.614;2023-05-08T05:52:44;10.63;;;7.50;;
5277;SDS011;2662;51.194;6.614;2023-05-08T05:55:14;9.23;;;7.20;;
5277;SDS011;2662;51.194;6.614;2023-05-08T05:57:43;7.87;;;7.07;;
5277;SDS011;2662;51.194;6.614;2023-05-08T06:00:15;9.27;;;7.30;;
5277;SDS011;2662;51.194;6.614;2023-05-08T06:02:43;7.73;;;6.70;;
5277;SDS011;2662;51.194;6.614;2023-05-08T06:05:13;9.03;;;7.30;;
5277;SDS011;2662;51.194;6.614;2023-05-08T06:07:43;7.87;;;6.40;;
5277;SDS011;2662;51.194;6.614;2023-05-08T06:10:14;9.47;;;7.10;;
5277;SDS011;2662;51.194;6.614;2023-05-08T06:12:44;6.63;;;5.90;;
5277;SDS011;2662;51.194;6.614;2023-05-08T06:15:14;12.30;;;6.93;;
5277;SDS011;2662;51.194;6.614;2023-05-08T06:17:41;8.10;;;7.20;;
5277;SDS011;2662;51.194;6.614;2023-05-08T06:20:13;8.10;;;6.57;;
5277;SDS011;2662;51.194;6.614;2023-05-08T06:22:41;9.10;;;7.57;;
5277;SDS011;2662;51.194;6.614;2023-05-08T06:25:09;9.43;;;6.40;;
5277;SDS011;2662;51.194;6.614;2023-05-08T06:27:41;8.53;;;7.07;;
5277;SDS011;2662;51.194;6.614;2023-05-08T06:30:10;8.93;;;7.50;;
5277;SDS011;2662;51.194;6.614;2023-05-08T06:32:39;11.43;;;7.73;;
5277;SDS011;2662;51.194;6.614;2023-05-08T06:35:09;10.07;;;7.87;;
5277;SDS011;2662;51.194;6.614;2023-05-08T06:37:40;10.50;;;7.17;;
5277;SDS011;2662;51.194;6.614;2023-05-08T06:40:08;9.30;;;7.40;;
5277;SDS011;2662;51.194;6.614;2023-05-08T06:42:36;9.30;;;6.87;;
5277;SDS011;2662;51.194;6.614;2023-05-08T06:45:07;8.00;;;7.20;;
5277;SDS011;2662;51.194;6.614;2023-05-08T06:47:35;11.40;;;6.77;;
5277;SDS011;2662;51.194;6.614;2023-05-08T06:50:03;8.77;;;7.47;;
5277;SDS011;2662;51.194;6.614;2023-05-08T06:52:32;12.60;;;7.80;;
5277;SDS011;2662;51.194;6.614;2023-05-08T06:55:02;11.50;;;8.20;;
5277;SDS011;2662;51.194;6.614;2023-05-08T06:57:32;9.33;;;8.13;;
5277;SDS011;2662;51.194;6.614;2023-05-08T07:00:01;10.73;;;8.50;;
5277;SDS011;2662;51.194;6.614;2023-05-08T07:02:32;10.17;;;8.40;;
5277;SDS011;2662;51.194;6.614;2023-05-08T07:05:04;12.37;;;9.70;;
5277;SDS011;2662;51.194;6.614;2023-05-08T07:07:36;11.90;;;10.63;;
5277;SDS011;2662;51.194;6.614;2023-05-08T07:10:07;13.30;;;10.73;;
5277;SDS011;2662;51.194;6.614;2023-05-08T07:12:35;14.97;;;11.87;;
5277;SDS011;2662;51.194;6.614;2023-05-08T07:15:04;17.23;;;14.97;;
5277;SDS011;2662;51.194;6.614;2023-05-08T07:17:36;22.27;;;15.43;;
5277;SDS011;2662;51.194;6.614;2023-05-08T07:20:07;19.07;;;14.53;;
5277;SDS011;2662;51.194;6.614;2023-05-08T07:22:35;16.80;;;14.00;;
5277;SDS011;2662;51.194;6.614;2023-05-08T07:25:05;18.53;;;13.30;;
5277;SDS011;2662;51.194;6.614;2023-05-08T07:27:35;14.07;;;12.43;;
5277;SDS011;2662;51.194;6.614;2023-05-08T07:30:03;16.47;;;14.00;;
5277;SDS011;2662;51.194;6.614;2023-05-08T07:32:33;17.67;;;14.70;;
5277;SDS011;2662;51.194;6.614;2023-05-08T07:35:04;21.63;;;14.77;;
5277;SDS011;2662;51.194;6.614;2023-05-08T07:37:35;18.97;;;13.57;;
5277;SDS011;2662;51.194;6.614;2023-05-08T07:40:03;18.90;;;14.90;;
5277;SDS011;2662;51.194;6.614;2023-05-08T07:42:37;18.80;;;14.53;;
5277;SDS011;2662;51.194;6.614;2023-05-08T07:45:08;17.97;;;14.53;;
5277;SDS011;2662;51.194;6.614;2023-05-08T07:47:46;19.50;;;15.07;;
5277;SDS011;2662;51.194;6.614;2023-05-08T07:50:20;19.30;;;13.70;;
5277;SDS011;2662;51.194;6.614;2023-05-08T07:52:50;15.47;;;13.87;;
5277;SDS011;2662;51.194;6.614;2023-05-08T07:55:18;16.40;;;13.90;;
5277;SDS011;2662;51.194;6.614;2023-05-08T07:57:46;16.30;;;14.10;;
5277;SDS011;2662;51.194;6.614;2023-05-08T08:00:17;17.30;;;14.07;;
5277;SDS011;2662;51.194;6.614;2023-05-08T08:02:49;20.07;;;14.90;;
5277;SDS011;2662;51.194;6.614;2023-05-08T08:05:18;17.63;;;14.80;;
5277;SDS011;2662;51.194;6.614;2023-05-08T08:07:47;15.90;;;14.10;;
5277;SDS011;2662;51.194;6.614;2023-05-08T08:10:17;16.77;;;13.93;;
5277;SDS011;2662;51.194;6.614;2023-05-08T08:12:45;15.60;;;13.93;;
5277;SDS011;2662;51.194;6.614;2023-05-08T08:15:15;19.40;;;14.10;;
5277;SDS011;2662;51.194;6.614;2023-05-08T08:17:45;18.23;;;16.13;;
5277;SDS011;2662;51.194;6.614;2023-05-08T08:20:19;20.13;;;15.00;;
5277;SDS011;2662;51.194;6.614;2023-05-08T08:22:48;18.70;;;14.30;;
5277;SDS011;2662;51.194;6.614;2023-05-08T08:25:18;18.40;;;14.90;;
5277;SDS011;2662;51.194;6.614;2023-05-08T08:27:45;18.87;;;13.47;;
5277;SDS011;2662;51.194;6.614;2023-05-08T08:30:13;19.07;;;15.93;;
5277;SDS011;2662;51.194;6.614;2023-05-08T08:32:42;22.97;;;16.03;;
5277;SDS011;2662;51.194;6.614;2023-05-08T08:35:10;22.83;;;16.10;;
5277;SDS011;2662;51.194;6.614;2023-05-08T08:37:41;21.57;;;16.90;;
5277;SDS011;2662;51.194;6.614;2023-05-08T08:40:09;19.50;;;16.47;;
5277;SDS011;2662;51.194;6.614;2023-05-08T08:42:40;21.37;;;16.50;;
5277;SDS011;2662;51.194;6.614;2023-05-08T08:45:08;19.63;;;15.40;;
5277;SDS011;2662;51.194;6.614;2023-05-08T08:47:37;25.47;;;15.73;;
5277;SDS011;2662;51.194;6.614;2023-05-08T08:50:09;22.33;;;15.60;;
5277;SDS011;2662;51.194;6.614;2023-05-08T08:52:45;21.80;;;16.87;;
5277;SDS011;2662;51.194;6.614;2023-05-08T08:55:18;19.77;;;16.10;;
5277;SDS011;2662;51.194;6.614;2023-05-08T08:57:50;18.17;;;15.03;;
5277;SDS011;2662;51.194;6.614;2023-05-08T09:00:26;19.67;;;12.70;;
5277;SDS011;2662;51.194;6.614;2023-05-08T09:02:56;22.23;;;15.10;;
5277;SDS011;2662;51.194;6.614;2023-05-08T09:05:24;16.43;;;13.00;;
5277;SDS011;2662;51.194;6.614;2023-05-08T09:07:54;18.80;;;15.20;;
5277;SDS011;2662;51.194;6.614;2023-05-08T09:10:23;20.63;;;14.50;;
5277;SDS011;2662;51.194;6.614;2023-05-08T09:12:56;17.70;;;14.67;;
5277;SDS011;2662;51.194;6.614;2023-05-08T09:15:23;18.80;;;14.73;;
5277;SDS011;2662;51.194;6.614;2023-05-08T09:17:50;18.20;;;14.50;;
5277;SDS011;2662;51.194;6.614;2023-05-08T09:20:18;18.33;;;14.20;;
5277;SDS011;2662;51.194;6.614;2023-05-08T09:22:46;18.10;;;14.43;;
5277;SDS011;2662;51.194;6.614;2023-05-08T09:25:19;20.93;;;16.30;;
5277;SDS011;2662;51.194;6.614;2023-05-08T09:27:46;18.93;;;15.00;;
5277;SDS011;2662;51.194;6.614;2023-05-08T09:30:14;16.37;;;13.30;;
5277;SDS011;2662;51.194;6.614;2023-05-08T09:32:41;16.43;;;13.63;;
5277;SDS011;2662;51.194;6.614;2023-05-08T09:35:11;15.40;;;13.23;;
5277;SDS011;2662;51.194;6.614;2023-05-08T09:37:40;17.83;;;14.57;;
5277;SDS011;2662;51.194;6.614;2023-05-08T09:40:15;14.40;;;12.43;;
5277;SDS011;2662;51.194;6.614;2023-05-08T09:42:45;12.50;;;11.20;;
5277;SDS011;2662;51.194;6.614;2023-05-08T09:45:27;13.00;;;11.30;;
5277;SDS011;2662;51.194;6.614;2023-05-08T09:47:56;11.87;;;10.63;;
5277;SDS011;2662;51.194;6.614;2023-05-08T09:50:23;13.10;;;11.13;;
5277;SDS011;2662;51.194;6.614;2023-05-08T09:52:51;13.17;;;10.83;;
5277;SDS011;2662;51.194;6.614;2023-05-08T09:55:19;11.27;;;10.07;;
5277;SDS011;2662;51.194;6.614;2023-05-08T09:57:54;13.20;;;10.40;;
5277;SDS011;2662;51.194;6.614;2023-05-08T10:00:23;11.73;;;9.13;;
5277;SDS011;2662;51.194;6.614;2023-05-08T10:02:54;11.17;;;8.80;;
5277;SDS011;2662;51.194;6.614;2023-05-08T10:05:24;16.43;;;8.80;;
5277;SDS011;2662;51.194;6.614;2023-05-08T10:07:55;11.40;;;10.00;;
5277;SDS011;2662;51.194;6.614;2023-05-08T10:10:25;12.93;;;8.50;;
5277;SDS011;2662;51.194;6.614;2023-05-08T10:13:00;9.27;;;7.90;;
5277;SDS011;2662;51.194;6.614;2023-05-08T10:15:32;8.00;;;7.20;;
5277;SDS011;2662;51.194;6.614;2023-05-08T10:18:03;7.77;;;6.97;;
5277;SDS011;2662;51.194;6.614;2023-05-08T10:20:37;10.77;;;6.13;;
5277;SDS011;2662;51.194;6.614;2023-05-08T10:23:09;5.67;;;5.20;;
5277;SDS011;2662;51.194;6.614;2023-05-08T10:25:44;5.83;;;5.30;;
5277;SDS011;2662;51.194;6.614;2023-05-08T10:28:17;6.27;;;5.67;;
5277;SDS011;2662;51.194;6.614;2023-05-08T10:30:59;6.63;;;5.97;;
5277;SDS011;2662;51.194;6.614;2023-05-08T10:33:29;5.70;;;5.07;;
5277;SDS011;2662;51.194;6.614;2023-05-08T10:36:00;5.13;;;4.63;;
5277;SDS011;2662;51.194;6.614;2023-05-08T10:38:28;7.43;;;4.93;;
5277;SDS011;2662;51.194;6.614;2023-05-08T10:40:59;5.53;;;4.93;;
5277;SDS011;2662;51.194;6.614;2023-05-08T10:43:29;4.60;;;4.00;;
5277;SDS011;2662;51.194;6.614;2023-05-08T10:46:00;4.70;;;3.63;;
5277;SDS011;2662;51.194;6.614;2023-05-08T10:48:38;4.30;;;3.93;;
5277;SDS011;2662;51.194;6.614;2023-05-08T10:51:15;4.57;;;4.10;;
5277;SDS011;2662;51.194;6.614;2023-05-08T10:53:50;4.27;;;3.87;;
5277;SDS011;2662;51.194;6.614;2023-05-08T10:56:25;3.90;;;3.50;;
5277;SDS011;2662;51.194;6.614;2023-05-08T10:58:58;4.40;;;4.00;;
5277;SDS011;2662;51.194;6.614;2023-05-08T11:01:25;4.33;;;3.93;;
5277;SDS011;2662;51.194;6.614;2023-05-08T11:03:53;12.53;;;4.13;;
5277;SDS011;2662;51.194;6.614;2023-05-08T11:09:14;8.57;;;4.70;;
5277;SDS011;2662;51.194;6.614;2023-05-08T11:11:50;4.17;;;3.87;;
5277;SDS011;2662;51.194;6.614;2023-05-08T11:14:33;5.50;;;3.60;;
5277;SDS011;2662;51.194;6.614;2023-05-08T11:17:07;4.23;;;3.93;;
5277;SDS011;2662;51.194;6.614;2023-05-08T11:19:36;4.53;;;4.13;;
5277;SDS011;2662;51.194;6.614;2023-05-08T11:22:10;4.00;;;3.70;;
5277;SDS011;2662;51.194;6.614;2023-05-08T11:24:46;5.00;;;3.97;;
5277;SDS011;2662;51.194;6.614;2023-05-08T11:27:16;3.73;;;3.43;;
5277;SDS011;2662;51.194;6.614;2023-05-08T11:29:45;3.60;;;3.30;;
5277;SDS011;2662;51.194;6.614;2023-05-08T11:32:56;3.10;;;2.90;;
5277;SDS011;2662;51.194;6.614;2023-05-08T11:35:44;2.60;;;2.40;;
5277;SDS011;2662;51.194;6.614;2023-05-08T11:38:18;2.73;;;2.53;;
5277;SDS011;2662;51.194;6.614;2023-05-08T11:40:55;3.33;;;3.10;;
5277;SDS011;2662;51.194;6.614;2023-05-08T11:43:45;2.60;;;2.40;;
5277;SDS011;2662;51.194;6.614;2023-05-08T11:46:29;3.77;;;2.40;;
5277;SDS011;2662;51.194;6.614;2023-05-08T11:49:03;3.63;;;2.60;;
5277;SDS011;2662;51.194;6.614;2023-05-08T11:51:30;4.53;;;2.80;;
5277;SDS011;2662;51.194;6.614;2023-05-08T11:53:57;4.00;;;2.93;;
5277;SDS011;2662;51.194;6.614;2023-05-08T11:56:26;2.77;;;2.43;;
5277;SDS011;2662;51.194;6.614;2023-05-08T11:59:03;4.03;;;3.20;;
5277;SDS011;2662;51.194;6.614;2023-05-08T12:01:34;3.33;;;3.03;;
5277;SDS011;2662;51.194;6.614;2023-05-08T12:04:03;4.67;;;3.70;;
5277;SDS011;2662;51.194;6.614;2023-05-08T12:06:32;7.63;;;3.83;;
5277;SDS011;2662;51.194;6.614;2023-05-08T12:09:02;4.17;;;3.87;;
5277;SDS011;2662;51.194;6.614;2023-05-08T12:11:35;5.27;;;4.13;;
5277;SDS011;2662;51.194;6.614;2023-05-08T12:14:03;5.57;;;4.00;;
5277;SDS011;2662;51.194;6.614;2023-05-08T12:16:33;4.70;;;4.30;;
5277;SDS011;2662;51.194;6.614;2023-05-08T12:19:03;6.40;;;4.03;;
5277;SDS011;2662;51.194;6.614;2023-05-08T12:21:36;5.10;;;3.80;;
5277;SDS011;2662;51.194;6.614;2023-05-08T12:24:04;4.27;;;3.87;;
5277;SDS011;2662;51.194;6.614;2023-05-08T12:26:35;4.73;;;4.33;;
5277;SDS011;2662;51.194;6.614;2023-05-08T12:29:04;5.00;;;4.50;;
5277;SDS011;2662;51.194;6.614;2023-05-08T12:31:33;5.10;;;4.57;;
5277;SDS011;2662;51.194;6.614;2023-05-08T12:34:03;4.83;;;3.70;;
5277;SDS011;2662;51.194;6.614;2023-05-08T12:36:32;6.70;;;3.60;;
5277;SDS011;2662;51.194;6.614;2023-05-08T12:39:13;4.67;;;4.00;;
5277;SDS011;2662;51.194;6.614;2023-05-08T12:41:45;6.50;;;5.03;;
5277;SDS011;2662;51.194;6.614;2023-05-08T12:44:18;6.30;;;4.90;;
5277;SDS011;2662;51.194;6.614;2023-05-08T12:46:50;4.53;;;4.13;;
5277;SDS011;2662;51.194;6.614;2023-05-08T12:49:23;5.10;;;4.40;;
5277;SDS011;2662;51.194;6.614;2023-05-08T12:51:58;4.53;;;4.17;;
5277;SDS011;2662;51.194;6.614;2023-05-08T12:54:30;5.33;;;4.17;;
5277;SDS011;2662;51.194;6.614;2023-05-08T12:57:00;7.20;;;5.03;;
5277;SDS011;2662;51.194;6.614;2023-05-08T12:59:31;5.00;;;4.20;;
5277;SDS011;2662;51.194;6.614;2023-05-08T13:02:01;4.63;;;3.60;;
5277;SDS011;2662;51.194;6.614;2023-05-08T13:04:29;4.57;;;4.17;;
5277;SDS011;2662;51.194;6.614;2023-05-08T13:07:02;3.80;;;3.20;;
5277;SDS011;2662;51.194;6.614;2023-05-08T13:09:30;3.80;;;3.50;;
5277;SDS011;2662;51.194;6.614;2023-05-08T13:11:57;4.53;;;4.13;;
5277;SDS011;2662;51.194;6.614;2023-05-08T13:14:25;4.47;;;4.07;;
5277;SDS011;2662;51.194;6.614;2023-05-08T13:16:53;5.87;;;4.37;;
5277;SDS011;2662;51.194;6.614;2023-05-08T13:19:23;7.10;;;5.80;;
5277;SDS011;2662;51.194;6.614;2023-05-08T13:21:51;8.60;;;5.87;;
5277;SDS011;2662;51.194;6.614;2023-05-08T13:24:19;6.13;;;5.53;;
5277;SDS011;2662;51.194;6.614;2023-05-08T13:26:47;7.07;;;6.13;;
5277;SDS011;2662;51.194;6.614;2023-05-08T13:29:15;6.47;;;5.80;;
5277;SDS011;2662;51.194;6.614;2023-05-08T13:31:43;6.57;;;5.60;;
5277;SDS011;2662;51.194;6.614;2023-05-08T13:34:11;7.37;;;5.63;;
5277;SDS011;2662;51.194;6.614;2023-05-08T13:36:40;6.30;;;5.70;;
5277;SDS011;2662;51.194;6.614;2023-05-08T13:39:08;6.90;;;6.20;;
5277;SDS011;2662;51.194;6.614;2023-05-08T13:41:36;7.43;;;5.90;;
5277;SDS011;2662;51.194;6.614;2023-05-08T13:44:04;6.57;;;5.97;;
5277;SDS011;2662;51.194;6.614;2023-05-08T13:46:31;8.97;;;6.03;;
5277;SDS011;2662;51.194;6.614;2023-05-08T13:48:59;12.83;;;6.20;;
5277;SDS011;2662;51.194;6.614;2023-05-08T13:51:27;7.60;;;6.30;;
5277;SDS011;2662;51.194;6.614;2023-05-08T13:53:57;7.63;;;5.87;;
5277;SDS011;2662;51.194;6.614;2023-05-08T13:56:25;7.73;;;5.50;;
5277;SDS011;2662;51.194;6.614;2023-05-08T13:58:52;7.37;;;6.13;;
5277;SDS011;2662;51.194;6.614;2023-05-08T14:01:21;7.07;;;4.93;;
5277;SDS011;2662;51.194;6.614;2023-05-08T14:03:49;6.90;;;5.10;;
5277;SDS011;2662;51.194;6.614;2023-05-08T14:06:16;5.33;;;4.50;;
5277;SDS011;2662;51.194;6.614;2023-05-08T14:08:45;7.87;;;5.00;;
5277;SDS011;2662;51.194;6.614;2023-05-08T14:11:14;6.37;;;4.43;;
5277;SDS011;2662;51.194;6.614;2023-05-08T14:13:42;5.73;;;4.90;;
5277;SDS011;2662;51.194;6.614;2023-05-08T14:16:10;5.93;;;5.07;;
5277;SDS011;2662;51.194;6.614;2023-05-08T14:18:38;8.23;;;5.00;;
5277;SDS011;2662;51.194;6.614;2023-05-08T14:21:06;5.10;;;4.60;;
5277;SDS011;2662;51.194;6.614;2023-05-08T14:23:32;4.70;;;4.20;;
5277;SDS011;2662;51.194;6.614;2023-05-08T14:25:59;5.00;;;4.30;;
5277;SDS011;2662;51.194;6.614;2023-05-08T14:28:29;5.80;;;4.00;;
5277;SDS011;2662;51.194;6.614;2023-05-08T14:30:56;12.57;;;4.20;;
5277;SDS011;2662;51.194;6.614;2023-05-08T14:33:24;4.37;;;3.97;;
5277;SDS011;2662;51.194;6.614;2023-05-08T14:35:52;6.03;;;4.73;;
5277;SDS011;2662;51.194;6.614;2023-05-08T14:38:19;4.83;;;4.33;;
5277;SDS011;2662;51.194;6.614;2023-05-08T14:40:48;5.93;;;4.40;;
5277;SDS011;2662;51.194;6.614;2023-05-08T14:43:18;6.53;;;3.87;;
5277;SDS011;2662;51.194;6.614;2023-05-08T14:45:47;4.70;;;3.90;;
5277;SDS011;2662;51.194;6.614;2023-05-08T14:48:16;4.50;;;4.07;;
5277;SDS011;2662;51.194;6.614;2023-05-08T14:50:43;5.97;;;4.10;;
5277;SDS011;2662;51.194;6.614;2023-05-08T14:53:11;3.83;;;3.53;;
5277;SDS011;2662;51.194;6.614;2023-05-08T14:55:39;3.90;;;3.50;;
5277;SDS011;2662;51.194;6.614;2023-05-08T14:58:06;4.37;;;3.97;;
5277;SDS011;2662;51.194;6.614;2023-05-08T15:00:34;3.97;;;3.60;;
5277;SDS011;2662;51.194;6.614;2023-05-08T15:03:03;3.40;;;3.10;;
5277;SDS011;2662;51.194;6.614;2023-05-08T15:05:32;8.23;;;3.50;;
5277;SDS011;2662;51.194;6.614;2023-05-08T15:08:00;4.70;;;3.80;;
5277;SDS011;2662;51.194;6.614;2023-05-08T15:10:29;7.30;;;3.23;;
5277;SDS011;2662;51.194;6.614;2023-05-08T15:12:57;3.83;;;3.53;;
5277;SDS011;2662;51.194;6.614;2023-05-08T15:15:25;5.43;;;4.03;;
5277;SDS011;2662;51.194;6.614;2023-05-08T15:17:53;4.40;;;4.00;;
5277;SDS011;2662;51.194;6.614;2023-05-08T15:20:22;4.00;;;3.60;;
5277;SDS011;2662;51.194;6.614;2023-05-08T15:22:49;6.40;;;4.60;;
5277;SDS011;2662;51.194;6.614;2023-05-08T15:25:18;5.77;;;4.43;;
5277;SDS011;2662;51.194;6.614;2023-05-08T15:27:47;14.73;;;5.00;;
5277;SDS011;2662;51.194;6.614;2023-05-08T15:30:17;5.43;;;4.60;;